sensor_id;sensor_type;location;lat;lon;timestamp;P1;durP1;ratioP1;P2;durP2;ratioP2
60582;SDS011;46415;47.536;19.066;2022-08-26T00:01:57;7.28;;;5.10;;
60582;SDS011;46415;47.536;19.066;2022-08-26T00:05:01;5.50;;;4.47;;
60582;SDS011;46415;47.536;19.066;2022-08-26T00:08:05;5.55;;;4.95;;
60582;SDS011;46415;47.536;19.066;2022-08-26T00:11:14;5.18;;;4.68;;
60582;SDS011;46415;47.536;19.066;2022-08-26T00:14:28;6.32;;;5.05;;
60582;SDS011;46415;47.536;19.066;2022-08-26T00:17:33;6.93;;;4.75;;
60582;SDS011;46415;47.536;19.066;2022-08-26T00:20:36;6.05;;;4.97;;
60582;SDS011;46415;47.536;19.066;2022-08-26T00:23:43;5.57;;;4.73;;
60582;SDS011;46415;47.536;19.066;2022-08-26T00:26:47;5.45;;;4.87;;
60582;SDS011;46415;47.536;19.066;2022-08-26T00:29:50;5.18;;;4.68;;
60582;SDS011;46415;47.536;19.066;2022-08-26T00:32:54;6.85;;;5.37;;
60582;SDS011;46415;47.536;19.066;2022-08-26T00:35:59;6.00;;;5.10;;
60582;SDS011;46415;47.536;19.066;2022-08-26T00:39:03;6.57;;;5.15;;
60582;SDS011;46415;47.536;19.066;2022-08-26T00:42:08;5.60;;;5.03;;
60582;SDS011;46415;47.536;19.066;2022-08-26T00:45:12;6.55;;;5.22;;
60582;SDS011;46415;47.536;19.066;2022-08-26T00:48:17;5.62;;;5.07;;
60582;SDS011;46415;47.536;19.066;2022-08-26T00:54:32;4.97;;;4.50;;
60582;SDS011;46415;47.536;19.066;2022-08-26T00:57:37;5.65;;;4.75;;
60582;SDS011;46415;47.536;19.066;2022-08-26T01:00:41;5.82;;;4.97;;
60582;SDS011;46415;47.536;19.066;2022-08-26T01:03:46;5.82;;;4.95;;
60582;SDS011;46415;47.536;19.066;2022-08-26T01:06:50;6.50;;;4.82;;
60582;SDS011;46415;47.536;19.066;2022-08-26T01:09:55;5.12;;;4.62;;
60582;SDS011;46415;47.536;19.066;2022-08-26T01:13:03;6.75;;;4.87;;
60582;SDS011;46415;47.536;19.066;2022-08-26T01:16:12;5.68;;;5.18;;
60582;SDS011;46415;47.536;19.066;2022-08-26T01:19:24;6.53;;;4.90;;
60582;SDS011;46415;47.536;19.066;2022-08-26T01:22:52;6.18;;;4.60;;
60582;SDS011;46415;47.536;19.066;2022-08-26T01:25:55;6.30;;;4.87;;
60582;SDS011;46415;47.536;19.066;2022-08-26T01:29:03;5.87;;;4.65;;
60582;SDS011;46415;47.536;19.066;2022-08-26T01:32:09;6.60;;;5.25;;
60582;SDS011;46415;47.536;19.066;2022-08-26T01:35:15;5.13;;;4.63;;
60582;SDS011;46415;47.536;19.066;2022-08-26T01:38:19;5.22;;;4.37;;
60582;SDS011;46415;47.536;19.066;2022-08-26T01:41:24;5.80;;;4.70;;
60582;SDS011;46415;47.536;19.066;2022-08-26T01:44:31;7.55;;;4.78;;
60582;SDS011;46415;47.536;19.066;2022-08-26T01:47:37;5.80;;;5.20;;
60582;SDS011;46415;47.536;19.066;2022-08-26T01:50:40;6.03;;;4.82;;
60582;SDS011;46415;47.536;19.066;2022-08-26T01:53:45;5.53;;;5.03;;
60582;SDS011;46415;47.536;19.066;2022-08-26T01:56:48;5.53;;;4.90;;
60582;SDS011;46415;47.536;19.066;2022-08-26T01:59:53;5.70;;;4.70;;
60582;SDS011;46415;47.536;19.066;2022-08-26T02:02:59;5.57;;;5.03;;
60582;SDS011;46415;47.536;19.066;2022-08-26T02:06:18;6.35;;;5.35;;
60582;SDS011;46415;47.536;19.066;2022-08-26T02:09:22;5.60;;;4.75;;
60582;SDS011;46415;47.536;19.066;2022-08-26T02:12:26;5.22;;;4.72;;
60582;SDS011;46415;47.536;19.066;2022-08-26T02:15:29;6.03;;;5.20;;
60582;SDS011;46415;47.536;19.066;2022-08-26T02:18:32;6.45;;;5.55;;
60582;SDS011;46415;47.536;19.066;2022-08-26T02:21:38;6.43;;;5.20;;
60582;SDS011;46415;47.536;19.066;2022-08-26T02:24:47;8.25;;;5.40;;
60582;SDS011;46415;47.536;19.066;2022-08-26T02:27:53;6.03;;;5.30;;
60582;SDS011;46415;47.536;19.066;2022-08-26T02:30:58;5.85;;;5.00;;
60582;SDS011;46415;47.536;19.066;2022-08-26T02:34:08;5.45;;;4.80;;
60582;SDS011;46415;47.536;19.066;2022-08-26T02:37:13;7.07;;;5.30;;
60582;SDS011;46415;47.536;19.066;2022-08-26T02:40:21;8.95;;;5.45;;
60582;SDS011;46415;47.536;19.066;2022-08-26T02:43:28;6.45;;;5.60;;
60582;SDS011;46415;47.536;19.066;2022-08-26T02:46:33;6.30;;;5.70;;
60582;SDS011;46415;47.536;19.066;2022-08-26T02:49:38;5.72;;;5.20;;
60582;SDS011;46415;47.536;19.066;2022-08-26T02:52:45;8.23;;;5.70;;
60582;SDS011;46415;47.536;19.066;2022-08-26T02:55:49;7.65;;;6.45;;
60582;SDS011;46415;47.536;19.066;2022-08-26T02:58:52;6.68;;;6.00;;
60582;SDS011;46415;47.536;19.066;2022-08-26T03:01:55;6.68;;;5.97;;
60582;SDS011;46415;47.536;19.066;2022-08-26T03:04:57;6.72;;;6.12;;
60582;SDS011;46415;47.536;19.066;2022-08-26T03:08:03;6.22;;;5.50;;
60582;SDS011;46415;47.536;19.066;2022-08-26T03:11:06;7.15;;;6.45;;
60582;SDS011;46415;47.536;19.066;2022-08-26T03:14:12;8.90;;;6.45;;
60582;SDS011;46415;47.536;19.066;2022-08-26T03:17:15;7.87;;;6.10;;
60582;SDS011;46415;47.536;19.066;2022-08-26T03:20:18;6.82;;;6.12;;
60582;SDS011;46415;47.536;19.066;2022-08-26T03:23:20;7.60;;;6.25;;
60582;SDS011;46415;47.536;19.066;2022-08-26T03:26:23;6.95;;;5.93;;
60582;SDS011;46415;47.536;19.066;2022-08-26T03:29:26;7.07;;;6.15;;
60582;SDS011;46415;47.536;19.066;2022-08-26T03:32:51;6.80;;;6.10;;
60582;SDS011;46415;47.536;19.066;2022-08-26T03:35:54;7.30;;;6.22;;
60582;SDS011;46415;47.536;19.066;2022-08-26T03:38:58;7.35;;;6.07;;
60582;SDS011;46415;47.536;19.066;2022-08-26T03:42:00;6.87;;;6.07;;
60582;SDS011;46415;47.536;19.066;2022-08-26T03:45:04;7.45;;;6.22;;
60582;SDS011;46415;47.536;19.066;2022-08-26T03:48:08;7.55;;;5.90;;
60582;SDS011;46415;47.536;19.066;2022-08-26T03:51:14;9.65;;;5.85;;
60582;SDS011;46415;47.536;19.066;2022-08-26T03:54:19;7.62;;;6.55;;
60582;SDS011;46415;47.536;19.066;2022-08-26T03:57:22;9.88;;;6.80;;
60582;SDS011;46415;47.536;19.066;2022-08-26T04:00:25;8.38;;;6.20;;
60582;SDS011;46415;47.536;19.066;2022-08-26T04:03:27;6.78;;;6.10;;
60582;SDS011;46415;47.536;19.066;2022-08-26T04:06:49;7.97;;;6.65;;
60582;SDS011;46415;47.536;19.066;2022-08-26T04:09:58;7.25;;;6.10;;
60582;SDS011;46415;47.536;19.066;2022-08-26T04:13:00;7.72;;;6.43;;
60582;SDS011;46415;47.536;19.066;2022-08-26T04:16:03;7.22;;;6.40;;
60582;SDS011;46415;47.536;19.066;2022-08-26T04:19:07;6.65;;;6.00;;
60582;SDS011;46415;47.536;19.066;2022-08-26T04:22:11;9.38;;;5.90;;
60582;SDS011;46415;47.536;19.066;2022-08-26T04:25:14;7.32;;;6.10;;
60582;SDS011;46415;47.536;19.066;2022-08-26T04:28:17;6.93;;;5.85;;
60582;SDS011;46415;47.536;19.066;2022-08-26T04:31:20;8.30;;;6.47;;
60582;SDS011;46415;47.536;19.066;2022-08-26T04:34:24;9.00;;;6.35;;
60582;SDS011;46415;47.536;19.066;2022-08-26T04:37:30;7.10;;;6.40;;
60582;SDS011;46415;47.536;19.066;2022-08-26T04:40:34;8.50;;;6.30;;
60582;SDS011;46415;47.536;19.066;2022-08-26T04:43:37;9.40;;;6.18;;
60582;SDS011;46415;47.536;19.066;2022-08-26T04:46:40;7.85;;;6.37;;
60582;SDS011;46415;47.536;19.066;2022-08-26T04:49:45;9.48;;;6.75;;
60582;SDS011;46415;47.536;19.066;2022-08-26T04:52:48;7.57;;;6.05;;
60582;SDS011;46415;47.536;19.066;2022-08-26T04:55:51;6.53;;;5.82;;
60582;SDS011;46415;47.536;19.066;2022-08-26T04:58:56;9.65;;;6.32;;
60582;SDS011;46415;47.536;19.066;2022-08-26T05:02:00;8.43;;;5.78;;
60582;SDS011;46415;47.536;19.066;2022-08-26T05:05:07;9.27;;;5.72;;
60582;SDS011;46415;47.536;19.066;2022-08-26T05:08:10;8.32;;;5.57;;
60582;SDS011;46415;47.536;19.066;2022-08-26T05:11:14;6.80;;;5.35;;
60582;SDS011;46415;47.536;19.066;2022-08-26T05:14:17;6.30;;;5.20;;
60582;SDS011;46415;47.536;19.066;2022-08-26T05:17:21;6.07;;;5.25;;
60582;SDS011;46415;47.536;19.066;2022-08-26T05:20:24;6.18;;;5.20;;
60582;SDS011;46415;47.536;19.066;2022-08-26T05:23:27;5.95;;;5.20;;
60582;SDS011;46415;47.536;19.066;2022-08-26T05:26:32;8.18;;;5.82;;
60582;SDS011;46415;47.536;19.066;2022-08-26T05:29:35;7.93;;;5.07;;
60582;SDS011;46415;47.536;19.066;2022-08-26T05:32:37;5.62;;;4.93;;
60582;SDS011;46415;47.536;19.066;2022-08-26T05:35:42;7.05;;;4.47;;
60582;SDS011;46415;47.536;19.066;2022-08-26T05:38:45;4.45;;;4.05;;
60582;SDS011;46415;47.536;19.066;2022-08-26T05:41:48;7.95;;;4.80;;
60582;SDS011;46415;47.536;19.066;2022-08-26T05:44:51;6.18;;;5.25;;
60582;SDS011;46415;47.536;19.066;2022-08-26T05:47:57;5.37;;;4.75;;
60582;SDS011;46415;47.536;19.066;2022-08-26T05:51:01;4.90;;;4.40;;
60582;SDS011;46415;47.536;19.066;2022-08-26T05:54:06;6.40;;;4.87;;
60582;SDS011;46415;47.536;19.066;2022-08-26T05:57:11;10.88;;;4.93;;
60582;SDS011;46415;47.536;19.066;2022-08-26T06:00:15;6.15;;;4.62;;
60582;SDS011;46415;47.536;19.066;2022-08-26T06:03:18;6.95;;;4.55;;
60582;SDS011;46415;47.536;19.066;2022-08-26T06:06:21;5.72;;;4.20;;
60582;SDS011;46415;47.536;19.066;2022-08-26T06:09:30;6.18;;;4.53;;
60582;SDS011;46415;47.536;19.066;2022-08-26T06:12:33;5.40;;;4.60;;
60582;SDS011;46415;47.536;19.066;2022-08-26T06:15:43;6.90;;;4.28;;
60582;SDS011;46415;47.536;19.066;2022-08-26T06:18:48;6.18;;;4.30;;
60582;SDS011;46415;47.536;19.066;2022-08-26T06:21:52;5.15;;;3.92;;
60582;SDS011;46415;47.536;19.066;2022-08-26T06:24:56;7.60;;;4.28;;
60582;SDS011;46415;47.536;19.066;2022-08-26T06:28:17;5.05;;;3.97;;
60582;SDS011;46415;47.536;19.066;2022-08-26T06:31:20;4.85;;;4.03;;
60582;SDS011;46415;47.536;19.066;2022-08-26T06:34:25;7.25;;;4.28;;
60582;SDS011;46415;47.536;19.066;2022-08-26T06:37:31;7.00;;;3.92;;
60582;SDS011;46415;47.536;19.066;2022-08-26T06:40:40;5.75;;;3.90;;
60582;SDS011;46415;47.536;19.066;2022-08-26T06:43:47;5.15;;;3.83;;
60582;SDS011;46415;47.536;19.066;2022-08-26T06:46:51;8.30;;;4.32;;
60582;SDS011;46415;47.536;19.066;2022-08-26T06:49:54;8.93;;;4.37;;
60582;SDS011;46415;47.536;19.066;2022-08-26T06:52:57;5.05;;;3.90;;
60582;SDS011;46415;47.536;19.066;2022-08-26T06:56:03;5.25;;;3.40;;
60582;SDS011;46415;47.536;19.066;2022-08-26T06:59:08;7.18;;;3.83;;
60582;SDS011;46415;47.536;19.066;2022-08-26T07:02:11;4.25;;;3.80;;
60582;SDS011;46415;47.536;19.066;2022-08-26T07:05:15;3.70;;;3.40;;
60582;SDS011;46415;47.536;19.066;2022-08-26T07:08:18;6.32;;;3.47;;
60582;SDS011;46415;47.536;19.066;2022-08-26T07:11:21;6.65;;;4.00;;
60582;SDS011;46415;47.536;19.066;2022-08-26T07:14:25;7.00;;;3.60;;
60582;SDS011;46415;47.536;19.066;2022-08-26T07:17:28;5.47;;;3.85;;
60582;SDS011;46415;47.536;19.066;2022-08-26T07:20:31;4.62;;;3.15;;
60582;SDS011;46415;47.536;19.066;2022-08-26T07:23:33;5.65;;;3.45;;
60582;SDS011;46415;47.536;19.066;2022-08-26T07:26:37;5.30;;;3.45;;
60582;SDS011;46415;47.536;19.066;2022-08-26T07:29:44;9.10;;;3.92;;
60582;SDS011;46415;47.536;19.066;2022-08-26T07:32:47;4.18;;;3.42;;
60582;SDS011;46415;47.536;19.066;2022-08-26T07:35:51;5.57;;;3.65;;
60582;SDS011;46415;47.536;19.066;2022-08-26T07:38:53;3.53;;;3.22;;
60582;SDS011;46415;47.536;19.066;2022-08-26T07:41:57;6.57;;;3.55;;
60582;SDS011;46415;47.536;19.066;2022-08-26T07:45:02;6.93;;;3.60;;
60582;SDS011;46415;47.536;19.066;2022-08-26T07:48:05;6.37;;;3.80;;
60582;SDS011;46415;47.536;19.066;2022-08-26T07:51:08;6.20;;;3.50;;
60582;SDS011;46415;47.536;19.066;2022-08-26T07:54:12;6.12;;;3.80;;
60582;SDS011;46415;47.536;19.066;2022-08-26T07:57:14;5.43;;;3.55;;
60582;SDS011;46415;47.536;19.066;2022-08-26T08:00:20;4.95;;;3.35;;
60582;SDS011;46415;47.536;19.066;2022-08-26T08:03:23;6.45;;;3.35;;
60582;SDS011;46415;47.536;19.066;2022-08-26T08:06:26;6.95;;;3.28;;
60582;SDS011;46415;47.536;19.066;2022-08-26T08:09:29;6.93;;;3.53;;
60582;SDS011;46415;47.536;19.066;2022-08-26T08:12:32;4.15;;;3.62;;
60582;SDS011;46415;47.536;19.066;2022-08-26T08:15:35;7.68;;;3.47;;
60582;SDS011;46415;47.536;19.066;2022-08-26T08:18:39;4.32;;;3.55;;
60582;SDS011;46415;47.536;19.066;2022-08-26T08:21:43;4.55;;;3.25;;
60582;SDS011;46415;47.536;19.066;2022-08-26T08:24:46;3.60;;;3.30;;
60582;SDS011;46415;47.536;19.066;2022-08-26T08:27:54;5.87;;;3.28;;
60582;SDS011;46415;47.536;19.066;2022-08-26T08:30:58;4.55;;;3.33;;
60582;SDS011;46415;47.536;19.066;2022-08-26T08:34:01;8.23;;;3.83;;
60582;SDS011;46415;47.536;19.066;2022-08-26T08:37:05;3.40;;;2.85;;
60582;SDS011;46415;47.536;19.066;2022-08-26T08:40:13;6.78;;;3.03;;
60582;SDS011;46415;47.536;19.066;2022-08-26T08:46:41;6.15;;;3.50;;
60582;SDS011;46415;47.536;19.066;2022-08-26T08:49:45;4.40;;;3.03;;
60582;SDS011;46415;47.536;19.066;2022-08-26T08:53:02;5.60;;;3.15;;
60582;SDS011;46415;47.536;19.066;2022-08-26T08:59:46;6.65;;;3.67;;
60582;SDS011;46415;47.536;19.066;2022-08-26T09:06:10;4.35;;;3.05;;
60582;SDS011;46415;47.536;19.066;2022-08-26T09:09:20;5.00;;;2.83;;
60582;SDS011;46415;47.536;19.066;2022-08-26T09:12:32;4.30;;;3.08;;
60582;SDS011;46415;47.536;19.066;2022-08-26T09:15:59;5.93;;;3.42;;
60582;SDS011;46415;47.536;19.066;2022-08-26T09:19:16;4.22;;;3.40;;
60582;SDS011;46415;47.536;19.066;2022-08-26T09:22:28;4.57;;;3.03;;
60582;SDS011;46415;47.536;19.066;2022-08-26T09:25:33;4.40;;;3.20;;
60582;SDS011;46415;47.536;19.066;2022-08-26T09:28:48;5.28;;;2.92;;
60582;SDS011;46415;47.536;19.066;2022-08-26T09:35:33;5.43;;;2.78;;
60582;SDS011;46415;47.536;19.066;2022-08-26T09:38:41;3.15;;;2.45;;
60582;SDS011;46415;47.536;19.066;2022-08-26T09:41:45;4.15;;;3.17;;
60582;SDS011;46415;47.536;19.066;2022-08-26T09:45:05;4.70;;;3.03;;
60582;SDS011;46415;47.536;19.066;2022-08-26T09:48:13;4.90;;;3.85;;
60582;SDS011;46415;47.536;19.066;2022-08-26T09:51:30;3.70;;;2.70;;
60582;SDS011;46415;47.536;19.066;2022-08-26T09:54:33;7.07;;;3.65;;
60582;SDS011;46415;47.536;19.066;2022-08-26T09:57:44;5.40;;;3.30;;
60582;SDS011;46415;47.536;19.066;2022-08-26T10:00:56;5.93;;;3.58;;
60582;SDS011;46415;47.536;19.066;2022-08-26T10:04:04;7.53;;;3.25;;
60582;SDS011;46415;47.536;19.066;2022-08-26T10:07:08;4.55;;;3.28;;
60582;SDS011;46415;47.536;19.066;2022-08-26T10:10:19;4.25;;;3.40;;
60582;SDS011;46415;47.536;19.066;2022-08-26T10:13:38;4.87;;;3.05;;
60582;SDS011;46415;47.536;19.066;2022-08-26T10:20:07;5.15;;;3.30;;
60582;SDS011;46415;47.536;19.066;2022-08-26T10:23:26;4.53;;;3.10;;
60582;SDS011;46415;47.536;19.066;2022-08-26T10:30:01;4.68;;;3.22;;
60582;SDS011;46415;47.536;19.066;2022-08-26T10:33:09;6.60;;;2.87;;
60582;SDS011;46415;47.536;19.066;2022-08-26T10:36:15;4.90;;;3.05;;
60582;SDS011;46415;47.536;19.066;2022-08-26T10:40:04;6.55;;;3.58;;
60582;SDS011;46415;47.536;19.066;2022-08-26T10:43:15;5.25;;;3.15;;
60582;SDS011;46415;47.536;19.066;2022-08-26T10:46:22;4.03;;;3.08;;
60582;SDS011;46415;47.536;19.066;2022-08-26T10:49:31;5.68;;;3.28;;
60582;SDS011;46415;47.536;19.066;2022-08-26T10:52:42;8.93;;;3.40;;
60582;SDS011;46415;47.536;19.066;2022-08-26T11:06:28;7.53;;;3.45;;
60582;SDS011;46415;47.536;19.066;2022-08-26T11:09:41;4.75;;;2.95;;
60582;SDS011;46415;47.536;19.066;2022-08-26T11:12:49;6.73;;;3.10;;
60582;SDS011;46415;47.536;19.066;2022-08-26T11:15:55;10.70;;;3.65;;
60582;SDS011;46415;47.536;19.066;2022-08-26T11:19:02;3.90;;;2.90;;
60582;SDS011;46415;47.536;19.066;2022-08-26T11:22:07;3.45;;;3.15;;
60582;SDS011;46415;47.536;19.066;2022-08-26T11:25:11;5.10;;;3.08;;
60582;SDS011;46415;47.536;19.066;2022-08-26T11:28:27;4.37;;;2.83;;
60582;SDS011;46415;47.536;19.066;2022-08-26T11:31:51;5.43;;;2.90;;
60582;SDS011;46415;47.536;19.066;2022-08-26T11:34:57;3.55;;;2.97;;
60582;SDS011;46415;47.536;19.066;2022-08-26T11:38:02;3.58;;;2.95;;
60582;SDS011;46415;47.536;19.066;2022-08-26T11:41:17;4.95;;;2.70;;
60582;SDS011;46415;47.536;19.066;2022-08-26T11:44:24;5.03;;;3.00;;
60582;SDS011;46415;47.536;19.066;2022-08-26T11:47:30;6.97;;;3.05;;
60582;SDS011;46415;47.536;19.066;2022-08-26T11:50:34;6.40;;;3.20;;
60582;SDS011;46415;47.536;19.066;2022-08-26T11:53:38;3.75;;;2.83;;
60582;SDS011;46415;47.536;19.066;2022-08-26T11:56:44;4.47;;;2.75;;
60582;SDS011;46415;47.536;19.066;2022-08-26T11:59:50;3.83;;;2.73;;
60582;SDS011;46415;47.536;19.066;2022-08-26T12:02:52;5.65;;;2.78;;
60582;SDS011;46415;47.536;19.066;2022-08-26T12:05:57;4.22;;;2.78;;
60582;SDS011;46415;47.536;19.066;2022-08-26T12:09:02;4.18;;;2.90;;
60582;SDS011;46415;47.536;19.066;2022-08-26T12:12:11;5.50;;;2.90;;
60582;SDS011;46415;47.536;19.066;2022-08-26T12:15:17;5.62;;;3.03;;
60582;SDS011;46415;47.536;19.066;2022-08-26T12:18:24;5.50;;;2.90;;
60582;SDS011;46415;47.536;19.066;2022-08-26T12:21:32;5.78;;;3.03;;
60582;SDS011;46415;47.536;19.066;2022-08-26T12:24:41;3.90;;;3.30;;
60582;SDS011;46415;47.536;19.066;2022-08-26T12:27:47;5.70;;;3.08;;
60582;SDS011;46415;47.536;19.066;2022-08-26T12:31:05;5.65;;;2.78;;
60582;SDS011;46415;47.536;19.066;2022-08-26T12:34:09;3.92;;;2.78;;
60582;SDS011;46415;47.536;19.066;2022-08-26T12:37:19;3.55;;;2.95;;
60582;SDS011;46415;47.536;19.066;2022-08-26T12:40:26;3.65;;;3.15;;
60582;SDS011;46415;47.536;19.066;2022-08-26T12:43:42;3.65;;;2.83;;
60582;SDS011;46415;47.536;19.066;2022-08-26T12:46:46;3.42;;;2.80;;
60582;SDS011;46415;47.536;19.066;2022-08-26T12:53:46;5.07;;;2.97;;
60582;SDS011;46415;47.536;19.066;2022-08-26T12:56:49;3.55;;;2.78;;
60582;SDS011;46415;47.536;19.066;2022-08-26T12:59:53;4.25;;;2.47;;
60582;SDS011;46415;47.536;19.066;2022-08-26T13:06:46;4.00;;;2.60;;
60582;SDS011;46415;47.536;19.066;2022-08-26T13:09:53;4.68;;;2.92;;
60582;SDS011;46415;47.536;19.066;2022-08-26T13:12:58;3.55;;;3.00;;
60582;SDS011;46415;47.536;19.066;2022-08-26T13:16:00;5.28;;;2.80;;
60582;SDS011;46415;47.536;19.066;2022-08-26T13:19:05;5.12;;;2.92;;
60582;SDS011;46415;47.536;19.066;2022-08-26T13:22:12;4.40;;;2.45;;
60582;SDS011;46415;47.536;19.066;2022-08-26T13:25:15;4.97;;;2.83;;
60582;SDS011;46415;47.536;19.066;2022-08-26T13:28:21;5.40;;;3.10;;
60582;SDS011;46415;47.536;19.066;2022-08-26T13:31:43;6.62;;;2.90;;
60582;SDS011;46415;47.536;19.066;2022-08-26T13:34:47;5.60;;;3.05;;
60582;SDS011;46415;47.536;19.066;2022-08-26T13:37:52;2.92;;;2.60;;
60582;SDS011;46415;47.536;19.066;2022-08-26T13:40:55;4.82;;;2.90;;
60582;SDS011;46415;47.536;19.066;2022-08-26T13:44:00;8.27;;;2.67;;
60582;SDS011;46415;47.536;19.066;2022-08-26T13:47:04;3.70;;;2.92;;
60582;SDS011;46415;47.536;19.066;2022-08-26T13:50:07;4.57;;;2.72;;
60582;SDS011;46415;47.536;19.066;2022-08-26T13:53:10;4.68;;;3.00;;
60582;SDS011;46415;47.536;19.066;2022-08-26T13:56:14;6.57;;;3.12;;
60582;SDS011;46415;47.536;19.066;2022-08-26T13:59:17;4.35;;;3.10;;
60582;SDS011;46415;47.536;19.066;2022-08-26T14:02:20;3.58;;;2.87;;
60582;SDS011;46415;47.536;19.066;2022-08-26T14:05:23;4.03;;;2.60;;
60582;SDS011;46415;47.536;19.066;2022-08-26T14:08:27;6.05;;;3.00;;
60582;SDS011;46415;47.536;19.066;2022-08-26T14:11:31;3.22;;;2.75;;
60582;SDS011;46415;47.536;19.066;2022-08-26T14:14:53;5.68;;;2.78;;
60582;SDS011;46415;47.536;19.066;2022-08-26T14:17:56;3.85;;;2.70;;
60582;SDS011;46415;47.536;19.066;2022-08-26T14:20:59;5.90;;;2.87;;
60582;SDS011;46415;47.536;19.066;2022-08-26T14:24:03;5.90;;;2.55;;
60582;SDS011;46415;47.536;19.066;2022-08-26T14:27:07;3.80;;;2.80;;
60582;SDS011;46415;47.536;19.066;2022-08-26T14:30:10;4.12;;;2.62;;
60582;SDS011;46415;47.536;19.066;2022-08-26T14:33:13;4.35;;;2.72;;
60582;SDS011;46415;47.536;19.066;2022-08-26T14:36:16;3.72;;;2.95;;
60582;SDS011;46415;47.536;19.066;2022-08-26T14:39:33;6.22;;;3.37;;
60582;SDS011;46415;47.536;19.066;2022-08-26T14:42:36;3.80;;;2.72;;
60582;SDS011;46415;47.536;19.066;2022-08-26T14:45:40;6.53;;;3.08;;
60582;SDS011;46415;47.536;19.066;2022-08-26T14:48:45;4.07;;;2.47;;
60582;SDS011;46415;47.536;19.066;2022-08-26T14:51:48;4.72;;;3.03;;
60582;SDS011;46415;47.536;19.066;2022-08-26T14:54:50;3.42;;;3.03;;
60582;SDS011;46415;47.536;19.066;2022-08-26T14:57:56;6.70;;;2.42;;
60582;SDS011;46415;47.536;19.066;2022-08-26T15:01:00;4.78;;;2.62;;
60582;SDS011;46415;47.536;19.066;2022-08-26T15:04:05;3.40;;;2.87;;
60582;SDS011;46415;47.536;19.066;2022-08-26T15:07:08;5.00;;;2.70;;
60582;SDS011;46415;47.536;19.066;2022-08-26T15:10:14;4.57;;;2.78;;
60582;SDS011;46415;47.536;19.066;2022-08-26T15:13:19;4.00;;;2.65;;
60582;SDS011;46415;47.536;19.066;2022-08-26T15:16:22;3.53;;;2.60;;
60582;SDS011;46415;47.536;19.066;2022-08-26T15:19:26;6.30;;;3.00;;
60582;SDS011;46415;47.536;19.066;2022-08-26T15:22:28;3.30;;;2.70;;
60582;SDS011;46415;47.536;19.066;2022-08-26T15:25:31;5.62;;;2.87;;
60582;SDS011;46415;47.536;19.066;2022-08-26T15:28:34;4.55;;;2.87;;
60582;SDS011;46415;47.536;19.066;2022-08-26T15:31:38;3.75;;;3.05;;
60582;SDS011;46415;47.536;19.066;2022-08-26T15:34:41;4.62;;;2.92;;
60582;SDS011;46415;47.536;19.066;2022-08-26T15:37:44;5.20;;;2.80;;
60582;SDS011;46415;47.536;19.066;2022-08-26T15:40:46;4.32;;;2.72;;
60582;SDS011;46415;47.536;19.066;2022-08-26T15:43:49;6.07;;;2.90;;
60582;SDS011;46415;47.536;19.066;2022-08-26T15:46:52;3.20;;;2.90;;
60582;SDS011;46415;47.536;19.066;2022-08-26T15:50:00;4.50;;;2.75;;
60582;SDS011;46415;47.536;19.066;2022-08-26T15:53:03;6.40;;;3.00;;
60582;SDS011;46415;47.536;19.066;2022-08-26T15:56:06;4.68;;;2.78;;
60582;SDS011;46415;47.536;19.066;2022-08-26T15:59:09;4.00;;;2.90;;
60582;SDS011;46415;47.536;19.066;2022-08-26T16:02:13;4.18;;;2.75;;
60582;SDS011;46415;47.536;19.066;2022-08-26T16:05:16;5.62;;;2.80;;
60582;SDS011;46415;47.536;19.066;2022-08-26T16:08:19;4.25;;;2.67;;
60582;SDS011;46415;47.536;19.066;2022-08-26T16:11:23;5.35;;;3.10;;
60582;SDS011;46415;47.536;19.066;2022-08-26T16:14:27;3.60;;;2.80;;
60582;SDS011;46415;47.536;19.066;2022-08-26T16:17:30;4.65;;;3.10;;
60582;SDS011;46415;47.536;19.066;2022-08-26T16:20:34;4.78;;;2.95;;
60582;SDS011;46415;47.536;19.066;2022-08-26T16:23:38;7.07;;;3.08;;
60582;SDS011;46415;47.536;19.066;2022-08-26T16:26:44;6.45;;;3.10;;
60582;SDS011;46415;47.536;19.066;2022-08-26T16:29:47;4.18;;;2.80;;
60582;SDS011;46415;47.536;19.066;2022-08-26T16:32:49;5.90;;;3.15;;
60582;SDS011;46415;47.536;19.066;2022-08-26T16:35:52;3.33;;;2.62;;
60582;SDS011;46415;47.536;19.066;2022-08-26T16:38:55;4.18;;;2.80;;
60582;SDS011;46415;47.536;19.066;2022-08-26T16:41:58;4.00;;;2.85;;
60582;SDS011;46415;47.536;19.066;2022-08-26T16:45:01;6.12;;;2.87;;
60582;SDS011;46415;47.536;19.066;2022-08-26T16:48:04;3.97;;;3.12;;
60582;SDS011;46415;47.536;19.066;2022-08-26T16:51:13;4.37;;;2.75;;
60582;SDS011;46415;47.536;19.066;2022-08-26T16:54:17;4.05;;;2.53;;
60582;SDS011;46415;47.536;19.066;2022-08-26T16:57:20;3.25;;;2.95;;
60582;SDS011;46415;47.536;19.066;2022-08-26T17:00:24;4.80;;;3.03;;
60582;SDS011;46415;47.536;19.066;2022-08-26T17:03:29;4.22;;;2.80;;
60582;SDS011;46415;47.536;19.066;2022-08-26T17:06:31;6.97;;;2.90;;
60582;SDS011;46415;47.536;19.066;2022-08-26T17:09:35;5.57;;;3.30;;
60582;SDS011;46415;47.536;19.066;2022-08-26T17:12:42;6.15;;;2.85;;
60582;SDS011;46415;47.536;19.066;2022-08-26T17:15:45;5.60;;;2.90;;
60582;SDS011;46415;47.536;19.066;2022-08-26T17:18:58;6.43;;;2.80;;
60582;SDS011;46415;47.536;19.066;2022-08-26T17:22:01;2.92;;;2.70;;
60582;SDS011;46415;47.536;19.066;2022-08-26T17:25:11;5.93;;;3.10;;
60582;SDS011;46415;47.536;19.066;2022-08-26T17:28:16;5.55;;;3.10;;
60582;SDS011;46415;47.536;19.066;2022-08-26T17:31:19;4.45;;;3.08;;
60582;SDS011;46415;47.536;19.066;2022-08-26T17:34:23;5.15;;;3.45;;
60582;SDS011;46415;47.536;19.066;2022-08-26T17:37:26;4.10;;;3.25;;
60582;SDS011;46415;47.536;19.066;2022-08-26T17:40:29;4.90;;;3.45;;
60582;SDS011;46415;47.536;19.066;2022-08-26T17:43:33;3.03;;;2.80;;
60582;SDS011;46415;47.536;19.066;2022-08-26T17:46:35;4.30;;;3.00;;
60582;SDS011;46415;47.536;19.066;2022-08-26T17:49:40;4.07;;;2.92;;
60582;SDS011;46415;47.536;19.066;2022-08-26T17:52:42;5.47;;;3.28;;
60582;SDS011;46415;47.536;19.066;2022-08-26T17:55:47;4.70;;;2.90;;
60582;SDS011;46415;47.536;19.066;2022-08-26T17:58:51;5.45;;;2.95;;
60582;SDS011;46415;47.536;19.066;2022-08-26T18:01:56;3.92;;;3.15;;
60582;SDS011;46415;47.536;19.066;2022-08-26T18:05:00;5.97;;;2.97;;
60582;SDS011;46415;47.536;19.066;2022-08-26T18:08:02;4.40;;;3.20;;
60582;SDS011;46415;47.536;19.066;2022-08-26T18:11:06;6.55;;;3.30;;
60582;SDS011;46415;47.536;19.066;2022-08-26T18:14:13;4.03;;;3.30;;
60582;SDS011;46415;47.536;19.066;2022-08-26T18:17:16;4.65;;;2.87;;
60582;SDS011;46415;47.536;19.066;2022-08-26T18:20:20;4.43;;;2.95;;
60582;SDS011;46415;47.536;19.066;2022-08-26T18:23:23;5.30;;;3.37;;
60582;SDS011;46415;47.536;19.066;2022-08-26T18:26:28;6.75;;;3.35;;
60582;SDS011;46415;47.536;19.066;2022-08-26T18:29:33;4.12;;;2.80;;
60582;SDS011;46415;47.536;19.066;2022-08-26T18:32:36;4.93;;;3.08;;
60582;SDS011;46415;47.536;19.066;2022-08-26T18:35:39;4.28;;;3.20;;
60582;SDS011;46415;47.536;19.066;2022-08-26T18:38:44;5.85;;;3.30;;
60582;SDS011;46415;47.536;19.066;2022-08-26T18:41:48;3.95;;;3.12;;
60582;SDS011;46415;47.536;19.066;2022-08-26T18:44:54;3.67;;;3.25;;
60582;SDS011;46415;47.536;19.066;2022-08-26T18:47:57;3.62;;;3.33;;
60582;SDS011;46415;47.536;19.066;2022-08-26T18:50:59;7.50;;;2.95;;
60582;SDS011;46415;47.536;19.066;2022-08-26T18:54:03;6.05;;;3.20;;
60582;SDS011;46415;47.536;19.066;2022-08-26T18:57:07;6.12;;;3.72;;
60582;SDS011;46415;47.536;19.066;2022-08-26T19:00:11;5.47;;;3.25;;
60582;SDS011;46415;47.536;19.066;2022-08-26T19:03:15;6.18;;;3.67;;